Time;durP1;ratioP1;P1;durP2;ratioP2;P2;SDS_P1;SDS_P2;PMS_P1;PMS_P2;Temp;Humidity;BMP_temperature;BMP_pressure;BME280_temperature;BME280_humidity;BME280_pressure;Samples;Min_cycle;Max_cycle;Signal;HPM_P1;HPM_P2
2021/08/12 00:01:29;;;;;;;5.72;2.28;;;20.10;65.20;;;;;;5044532;28;20361;-74
2021/08/12 00:03:55;;;;;;;4.07;2.22;;;20.00;65.10;;;;;;5037265;28;20519;-75
2021/08/12 00:06:21;;;;;;;4.88;2.40;;;20.00;65.20;;;;;;5044764;28;20053;-74
2021/08/12 00:08:46;;;;;;;4.35;2.47;;;20.00;65.20;;;;;;5007285;28;20123;-74
2021/08/12 00:11:13;;;;;;;3.60;2.30;;;20.00;65.30;;;;;;5006885;28;20369;-75
2021/08/12 00:13:39;;;;;;;5.07;2.40;;;19.90;65.20;;;;;;5032874;28;20130;-75
2021/08/12 00:16:05;;;;;;;5.25;2.60;;;19.90;65.30;;;;;;5044228;28;20044;-75
2021/08/12 00:18:32;;;;;;;4.05;2.30;;;19.90;65.40;;;;;;5038606;28;20033;-75
2021/08/12 00:20:58;;;;;;;4.50;1.98;;;19.90;65.40;;;;;;5043325;28;20051;-75
2021/08/12 00:23:26;;;;;;;6.10;2.85;;;19.90;65.50;;;;;;5025551;28;20029;-75
2021/08/12 00:25:53;;;;;;;5.30;2.75;;;19.80;65.40;;;;;;5026848;28;20163;-76
2021/08/12 00:28:19;;;;;;;4.80;2.33;;;19.80;65.40;;;;;;5026768;28;20136;-73
2021/08/12 00:30:45;;;;;;;6.40;3.08;;;19.80;65.60;;;;;;5029841;28;20098;-74
2021/08/12 00:33:11;;;;;;;5.32;2.40;;;19.70;65.40;;;;;;5025587;28;20439;-74
2021/08/12 00:35:37;;;;;;;5.85;2.50;;;19.70;65.50;;;;;;5026088;28;20025;-74
2021/08/12 00:38:04;;;;;;;6.05;2.60;;;19.70;65.50;;;;;;5013248;28;20039;-74
2021/08/12 00:40:32;;;;;;;4.85;2.42;;;19.70;65.60;;;;;;5013743;28;20039;-74
2021/08/12 00:42:59;;;;;;;5.15;2.30;;;19.70;65.60;;;;;;5029712;28;20021;-74
2021/08/12 00:45:25;;;;;;;6.43;2.22;;;19.70;65.60;;;;;;5013335;28;20041;-74
2021/08/12 00:47:51;;;;;;;8.18;2.35;;;19.60;65.50;;;;;;5029727;28;20440;-74
2021/08/12 00:50:19;;;;;;;6.53;2.45;;;19.60;65.60;;;;;;5029385;28;20478;-74
2021/08/12 00:52:46;;;;;;;4.97;2.15;;;19.60;65.70;;;;;;5028967;28;20040;-74
2021/08/12 00:55:13;;;;;;;4.05;2.13;;;19.60;65.70;;;;;;5029616;28;20033;-74
2021/08/12 00:57:39;;;;;;;5.20;2.47;;;19.60;65.80;;;;;;5047232;28;20403;-73
2021/08/12 01:00:06;;;;;;;7.22;2.45;;;19.60;65.80;;;;;;5025776;28;20124;-73
2021/08/12 01:02:34;;;;;;;5.40;1.90;;;19.60;65.90;;;;;;5009603;28;20036;-73
2021/08/12 01:05:02;;;;;;;5.72;2.15;;;19.50;65.70;;;;;;5024784;28;20051;-73
2021/08/12 01:07:39;;;;;;;4.65;2.25;;;19.50;65.80;;;;;;5009551;28;20403;-73
2021/08/12 01:10:29;;;;;;;1.98;1.77;;;19.50;65.90;;;;;;5011204;28;20039;-74
2021/08/12 01:13:16;;;;;;;6.18;2.55;;;19.50;65.90;;;;;;5012811;28;20192;-73
2021/08/12 01:15:49;;;;;;;4.00;2.20;;;19.50;65.90;;;;;;5029378;28;20029;-74
2021/08/12 01:18:24;;;;;;;5.53;2.38;;;19.40;65.70;;;;;;5030545;28;20293;-73
2021/08/12 01:21:16;;;;;;;3.35;2.20;;;19.40;65.80;;;;;;5028822;28;20128;-73
2021/08/12 01:23:42;;;;;;;3.90;1.98;;;19.40;65.90;;;;;;5025721;28;20036;-73
2021/08/12 01:26:11;;;;;;;5.65;2.20;;;19.40;65.80;;;;;;5009043;28;20506;-74
2021/08/12 01:28:43;;;;;;;4.05;1.83;;;19.30;65.80;;;;;;5024882;28;20364;-74
2021/08/12 01:31:39;;;;;;;5.03;1.87;;;19.30;65.90;;;;;;5011909;28;20442;-74
2021/08/12 01:34:31;;;;;;;4.25;2.03;;;19.30;65.90;;;;;;5006207;28;20124;-73
2021/08/12 01:36:59;;;;;;;7.10;3.03;;;19.30;66.00;;;;;;5029831;28;20059;-75
2021/08/12 01:39:28;;;;;;;3.13;1.65;;;19.20;65.80;;;;;;5030218;28;20116;-74
2021/08/12 01:41:55;;;;;;;8.52;2.60;;;19.30;66.00;;;;;;5029577;28;20383;-75
2021/08/12 01:44:26;;;;;;;4.55;1.80;;;19.20;65.90;;;;;;5030379;28;20511;-74
2021/08/12 01:46:52;;;;;;;3.08;1.90;;;19.20;65.90;;;;;;5020584;23;20085;-90
2021/08/12 01:49:19;;;;;;;4.55;1.90;;;19.20;66.00;;;;;;5000631;28;20446;-93
2021/08/12 01:51:46;;;;;;;3.78;1.92;;;19.10;65.80;;;;;;5019105;28;20519;-91
2021/08/12 01:54:14;;;;;;;6.93;1.98;;;19.10;66.40;;;;;;5020841;28;20550;-92
2021/08/12 01:56:42;;;;;;;4.80;2.38;;;19.10;65.90;;;;;;5009214;28;20051;-95
2021/08/12 01:59:12;;;;;;;4.43;1.80;;;19.10;66.00;;;;;;5031774;28;20085;-92
2021/08/12 02:01:46;;;;;;;3.85;2.22;;;19.00;65.90;;;;;;5017828;28;20049;-95
2021/08/12 02:04:14;;;;;;;4.32;2.15;;;19.00;66.00;;;;;;5000834;28;20034;-88
2021/08/12 02:06:41;;;;;;;3.70;2.03;;;18.90;65.80;;;;;;5018061;28;20033;-92
2021/08/12 02:09:08;;;;;;;5.22;2.28;;;18.90;65.90;;;;;;5001612;28;20037;-89
2021/08/12 02:11:34;;;;;;;3.65;2.00;;;18.80;65.80;;;;;;5006553;28;20045;-94
2021/08/12 02:14:01;;;;;;;4.20;2.20;;;18.80;65.90;;;;;;5037530;28;20028;-91
2021/08/12 02:16:28;;;;;;;4.40;2.03;;;18.70;65.80;;;;;;5026071;28;20044;-90
2021/08/12 02:18:54;;;;;;;7.95;2.42;;;18.70;65.90;;;;;;5058052;28;20582;-91
2021/08/12 02:21:23;;;;;;;4.70;1.80;;;18.70;66.00;;;;;;5056696;28;20092;-90
2021/08/12 02:24:22;;;;;;;5.50;2.17;;;18.70;66.10;;;;;;5056669;28;20024;-91
2021/08/12 02:27:00;;;;;;;5.18;2.15;;;18.60;66.00;;;;;;5039541;28;20100;-88
2021/08/12 02:29:29;;;;;;;4.45;1.95;;;18.60;66.10;;;;;;5056210;28;20021;-92
2021/08/12 02:31:56;;;;;;;6.35;1.75;;;18.50;65.90;;;;;;5056921;28;20132;-91
2021/08/12 02:34:24;;;;;;;4.82;2.22;;;18.50;66.00;;;;;;5039691;28;20077;-92
2021/08/12 02:36:52;;;;;;;3.38;2.10;;;18.50;66.10;;;;;;5057138;28;20032;-90
2021/08/12 02:39:19;;;;;;;5.75;1.77;;;18.40;66.00;;;;;;5056589;28;20032;-91
2021/08/12 02:41:47;;;;;;;4.57;2.50;;;18.40;66.00;;;;;;5040634;28;20039;-89
2021/08/12 02:44:14;;;;;;;5.35;2.28;;;18.30;65.90;;;;;;5057104;28;20028;-92
2021/08/12 02:46:41;;;;;;;4.10;1.75;;;18.30;66.00;;;;;;5056317;28;20149;-90
2021/08/12 02:49:09;;;;;;;4.30;1.80;;;18.30;66.00;;;;;;5040403;28;20328;-90
2021/08/12 02:51:36;;;;;;;5.47;2.08;;;18.30;66.10;;;;;;5056384;28;20127;-92
2021/08/12 02:54:05;;;;;;;4.25;2.40;;;18.20;65.90;;;;;;5073641;28;20036;-92
2021/08/12 02:56:35;;;;;;;4.63;1.95;;;18.20;66.00;;;;;;5056650;28;20034;-88
2021/08/12 02:59:04;;;;;;;5.25;2.22;;;18.10;65.90;;;;;;5057977;28;20086;-92
2021/08/12 03:01:36;;;;;;;6.20;1.55;;;18.10;65.90;;;;;;5041025;28;20163;-89
2021/08/12 03:04:04;;;;;;;3.90;2.00;;;18.10;66.00;;;;;;5074089;28;20040;-91
2021/08/12 03:06:32;;;;;;;4.13;1.90;;;18.00;65.80;;;;;;5056174;28;20035;-87
2021/08/12 03:08:59;;;;;;;5.40;1.90;;;18.00;65.90;;;;;;5056150;28;20077;-90
2021/08/12 03:11:27;;;;;;;3.03;1.75;;;17.90;65.80;;;;;;5055686;28;20537;-90
2021/08/12 03:13:54;;;;;;;5.45;2.20;;;17.90;65.80;;;;;;5056362;28;20384;-91
2021/08/12 03:16:22;;;;;;;3.80;2.05;;;17.90;65.90;;;;;;5073877;28;20499;-90
2021/08/12 03:18:48;;;;;;;5.35;2.03;;;17.90;65.90;;;;;;5039929;28;20121;-90
2021/08/12 03:21:16;;;;;;;5.38;2.58;;;17.80;65.80;;;;;;5055358;28;20024;-89
2021/08/12 03:23:42;;;;;;;4.50;2.20;;;17.80;65.90;;;;;;5039055;28;20090;-90
2021/08/12 03:26:09;;;;;;;5.55;1.63;;;17.80;66.00;;;;;;5056129;28;20115;-87
2021/08/12 03:28:35;;;;;;;3.95;1.70;;;17.70;65.90;;;;;;5046881;28;20032;-94
2021/08/12 03:31:03;;;;;;;2.67;1.52;;;17.60;65.70;;;;;;5062741;28;20029;-92
2021/08/12 03:33:30;;;;;;;3.22;1.67;;;17.60;65.80;;;;;;5057987;28;20039;-92
2021/08/12 03:35:57;;;;;;;4.25;1.80;;;17.60;65.90;;;;;;5057260;28;20032;-92
2021/08/12 03:38:23;;;;;;;2.55;1.80;;;17.50;65.80;;;;;;5056735;28;20495;-92
2021/08/12 03:40:50;;;;;;;2.45;1.73;;;17.50;65.80;;;;;;5057087;28;20127;-89
2021/08/12 03:43:17;;;;;;;7.90;2.03;;;17.50;65.90;;;;;;5040026;28;20032;-91
2021/08/12 03:45:44;;;;;;;2.75;1.95;;;17.40;65.80;;;;;;5039603;28;20029;-91
2021/08/12 03:48:10;;;;;;;3.53;1.75;;;17.40;65.90;;;;;;5056462;28;20032;-91
2021/08/12 03:50:38;;;;;;;3.70;2.00;;;17.30;65.80;;;;;;5073364;28;20029;-91
2021/08/12 03:53:04;;;;;;;5.22;1.70;;;17.30;65.80;;;;;;5055706;28;20040;-89
2021/08/12 03:55:30;;;;;;;4.78;2.00;;;17.30;65.80;;;;;;5055146;28;20028;-89
2021/08/12 03:57:57;;;;;;;4.40;1.83;;;17.20;65.70;;;;;;5055313;28;20032;-88
2021/08/12 04:00:24;;;;;;;4.50;1.75;;;17.20;65.80;;;;;;5055328;28;20052;-89
2021/08/12 04:02:50;;;;;;;6.00;1.60;;;17.10;65.60;;;;;;5055690;28;20115;-89
2021/08/12 04:05:17;;;;;;;6.75;1.85;;;17.10;65.70;;;;;;5041926;28;20082;-86
2021/08/12 04:07:43;;;;;;;3.85;1.60;;;17.10;65.80;;;;;;5058976;28;20039;-89
2021/08/12 04:10:10;;;;;;;3.15;1.85;;;17.10;65.80;;;;;;5076951;28;20024;-89
2021/08/12 04:12:37;;;;;;;3.28;1.67;;;17.00;65.70;;;;;;5060645;28;20036;-91
2021/08/12 04:15:03;;;;;;;4.50;1.95;;;17.00;65.80;;;;;;5077760;28;20028;-90
2021/08/12 04:17:30;;;;;;;2.88;1.40;;;17.00;65.80;;;;;;5058548;28;20047;-88
2021/08/12 04:19:56;;;;;;;5.05;2.03;;;16.90;65.70;;;;;;5041710;28;20501;-86
2021/08/12 04:22:22;;;;;;;3.10;1.48;;;16.90;65.80;;;;;;5033376;28;20029;-86
2021/08/12 04:24:48;;;;;;;3.55;2.15;;;16.80;65.70;;;;;;5050772;28;20024;-88
2021/08/12 04:27:14;;;;;;;4.43;1.80;;;16.80;65.70;;;;;;5046981;28;20385;-84
2021/08/12 04:29:41;;;;;;;4.72;1.52;;;16.80;65.80;;;;;;5030334;28;20091;-88
2021/08/12 04:32:08;;;;;;;2.83;1.27;;;16.70;65.70;;;;;;5057778;28;20109;-88
2021/08/12 04:34:34;;;;;;;2.67;1.52;;;16.70;65.70;;;;;;5058241;28;20033;-87
2021/08/12 04:37:00;;;;;;;6.07;1.75;;;16.70;65.70;;;;;;5057856;28;20032;-86
2021/08/12 04:39:26;;;;;;;4.38;1.58;;;16.60;65.60;;;;;;5058404;28;20037;-87
2021/08/12 04:41:53;;;;;;;4.30;1.42;;;16.60;65.60;;;;;;5058575;28;20036;-86
2021/08/12 04:44:19;;;;;;;3.65;1.23;;;16.60;65.70;;;;;;5041567;28;20318;-87
2021/08/12 04:46:45;;;;;;;6.35;1.85;;;16.50;65.50;;;;;;5050347;28;20049;-89
2021/08/12 04:49:12;;;;;;;2.58;1.40;;;16.50;65.60;;;;;;5031246;28;20086;-85
2021/08/12 04:51:38;;;;;;;1.83;1.30;;;16.40;65.40;;;;;;5058513;28;20033;-85
2021/08/12 04:54:09;;;;;;;0.82;0.80;;;16.40;65.50;;;;;;5065194;28;20017;-93
2021/08/12 04:56:36;;;;;;;1.63;1.10;;;16.40;65.50;;;;;;5077189;28;20037;-88
2021/08/12 04:59:03;;;;;;;2.88;1.33;;;16.40;65.60;;;;;;5070218;28;20057;-93
2021/08/12 05:01:29;;;;;;;4.90;1.75;;;16.30;65.50;;;;;;5054783;28;20032;-90
2021/08/12 05:03:56;;;;;;;1.63;1.30;;;16.30;65.50;;;;;;5032470;28;20031;-94
2021/08/12 05:06:22;;;;;;;2.58;1.50;;;16.30;65.50;;;;;;5036911;28;20358;-93
2021/08/12 05:08:49;;;;;;;2.65;1.42;;;16.30;65.60;;;;;;5051212;28;20125;-91
2021/08/12 05:11:15;;;;;;;2.45;1.33;;;16.20;65.50;;;;;;5038186;28;20037;-90
2021/08/12 05:13:41;;;;;;;3.60;1.40;;;16.20;65.50;;;;;;5037812;28;20037;-89
2021/08/12 05:16:08;;;;;;;1.48;1.23;;;16.20;65.60;;;;;;5030783;28;20025;-90
2021/08/12 05:18:35;;;;;;;2.47;1.75;;;16.10;65.40;;;;;;5039296;28;20032;-93
2021/08/12 05:21:01;;;;;;;3.13;1.50;;;16.20;65.70;;;;;;5037715;28;20032;-87
2021/08/12 05:23:27;;;;;;;2.42;1.13;;;16.20;65.70;;;;;;5033640;28;20137;-87
2021/08/12 05:25:53;;;;;;;2.72;1.52;;;16.10;65.50;;;;;;5057573;28;20427;-92
2021/08/12 05:28:21;;;;;;;3.78;1.48;;;16.10;65.50;;;;;;5048699;28;20479;-87
2021/08/12 05:30:50;;;;;;;2.15;1.60;;;16.10;65.60;;;;;;5023638;28;20033;-89
2021/08/12 05:33:17;;;;;;;3.17;1.65;;;16.10;65.70;;;;;;5031857;28;20032;-95
2021/08/12 05:35:43;;;;;;;1.48;1.30;;;16.10;65.70;;;;;;5036477;28;20024;-90
2021/08/12 05:38:09;;;;;;;3.55;1.52;;;16.10;65.70;;;;;;5041309;28;20035;-88
2021/08/12 05:40:41;;;;;;;4.28;1.58;;;16.10;65.70;;;;;;5045072;28;20031;-90
2021/08/12 05:43:07;;;;;;;4.93;1.95;;;16.00;65.60;;;;;;5041723;28;20037;-88
2021/08/12 05:45:33;;;;;;;1.95;1.38;;;16.00;65.60;;;;;;5039536;28;20262;-86
2021/08/12 05:48:00;;;;;;;2.47;1.65;;;16.00;66.20;;;;;;5041732;28;20048;-85
2021/08/12 05:50:26;;;;;;;3.15;1.63;;;16.00;65.60;;;;;;5034710;28;20037;-86
2021/08/12 05:52:52;;;;;;;2.65;1.42;;;16.00;65.70;;;;;;5045541;28;20082;-92
2021/08/12 05:55:18;;;;;;;2.63;1.40;;;16.00;65.70;;;;;;5035541;28;20021;-91
2021/08/12 05:57:44;;;;;;;2.83;1.50;;;16.00;65.70;;;;;;5039438;28;20093;-89
2021/08/12 06:00:11;;;;;;;6.57;1.75;;;16.00;65.70;;;;;;5023014;28;20028;-93
2021/08/12 06:02:45;;;;;;;3.13;1.63;;;16.00;65.70;;;;;;5057368;28;20035;-92
2021/08/12 06:05:17;;;;;;;3.00;1.70;;;16.00;65.70;;;;;;5041454;28;20036;-92
2021/08/12 06:07:43;;;;;;;2.75;1.52;;;16.00;65.80;;;;;;5038926;28;20456;-90
2021/08/12 06:10:10;;;;;;;3.65;1.60;;;16.10;66.00;;;;;;5036690;28;20021;-92
2021/08/12 06:12:37;;;;;;;2.75;1.60;;;16.10;66.00;;;;;;5056199;28;20058;-94
2021/08/12 06:15:04;;;;;;;4.88;1.70;;;16.10;66.00;;;;;;5027032;28;20044;-88
2021/08/12 06:17:35;;;;;;;3.42;1.60;;;16.20;66.20;;;;;;5034531;28;20424;-92
2021/08/12 06:20:03;;;;;;;2.38;1.50;;;16.20;66.20;;;;;;5022426;28;20033;-90
2021/08/12 06:22:29;;;;;;;4.32;2.00;;;16.30;66.40;;;;;;5037904;28;20028;-88
2021/08/12 06:24:55;;;;;;;3.08;1.85;;;16.30;66.40;;;;;;5055620;28;20421;-90
2021/08/12 06:27:21;;;;;;;4.50;1.80;;;16.40;66.60;;;;;;5047392;28;20099;-92
2021/08/12 06:29:48;;;;;;;4.25;2.20;;;16.50;66.70;;;;;;5040326;28;20527;-90
2021/08/12 06:32:14;;;;;;;3.50;1.60;;;16.60;66.90;;;;;;5040889;28;20047;-88
2021/08/12 06:34:40;;;;;;;3.70;1.70;;;16.70;67.00;;;;;;5026413;28;20017;-91
2021/08/12 06:37:06;;;;;;;5.20;2.00;;;16.80;67.20;;;;;;5017549;28;20082;-87
2021/08/12 06:39:32;;;;;;;5.05;2.13;;;17.00;67.50;;;;;;5032716;28;20033;-90
2021/08/12 06:41:59;;;;;;;2.60;1.65;;;17.10;67.60;;;;;;5018267;28;20033;-91
2021/08/12 06:44:45;;;;;;;4.70;1.73;;;17.20;67.70;;;;;;5034270;28;20566;-87
2021/08/12 06:47:11;;;;;;;4.28;1.98;;;17.40;68.00;;;;;;5022979;28;20045;-85
2021/08/12 06:49:37;;;;;;;5.57;1.65;;;17.60;68.30;;;;;;5045023;28;20103;-85
2021/08/12 06:52:04;;;;;;;4.40;1.83;;;17.70;68.50;;;;;;5030466;28;20044;-86
2021/08/12 06:54:30;;;;;;;4.15;2.28;;;17.90;68.90;;;;;;5030462;28;20035;-86
2021/08/12 06:56:57;;;;;;;5.45;2.13;;;18.20;69.30;;;;;;5029119;28;20063;-86
2021/08/12 06:59:23;;;;;;;4.40;1.80;;;18.40;69.40;;;;;;5029579;28;20115;-84
2021/08/12 07:01:50;;;;;;;3.50;2.10;;;18.80;69.80;;;;;;5049935;28;20028;-88
2021/08/12 07:04:17;;;;;;;4.32;1.85;;;19.00;69.70;;;;;;5034733;28;20028;-86
2021/08/12 07:06:46;;;;;;;6.90;2.30;;;19.40;70.00;;;;;;5034558;28;20073;-90
2021/08/12 07:09:12;;;;;;;3.08;1.60;;;19.70;70.10;;;;;;5070181;28;20288;-89
2021/08/12 07:11:38;;;;;;;4.57;1.92;;;20.00;70.10;;;;;;5035998;28;20036;-94
2021/08/12 07:14:04;;;;;;;5.53;1.60;;;20.30;70.10;;;;;;5053108;28;20260;-91
2021/08/12 07:16:33;;;;;;;3.83;1.63;;;20.60;70.10;;;;;;5029233;28;20480;-89
2021/08/12 07:18:59;;;;;;;3.40;1.83;;;20.90;70.10;;;;;;5052772;28;20041;-85
2021/08/12 07:21:25;;;;;;;3.40;1.60;;;21.20;70.00;;;;;;5035886;28;20033;-87
2021/08/12 07:23:56;;;;;;;4.05;1.90;;;21.50;69.90;;;;;;5036153;28;20545;-92
2021/08/12 07:26:23;;;;;;;4.78;1.65;;;21.90;69.90;;;;;;5035907;28;20033;-91
2021/08/12 07:28:49;;;;;;;5.68;1.90;;;22.20;69.70;;;;;;5040283;28;20028;-90
2021/08/12 07:31:16;;;;;;;3.20;1.75;;;22.60;69.70;;;;;;5033164;28;20389;-92
2021/08/12 07:33:44;;;;;;;3.63;1.70;;;22.80;69.20;;;;;;5033194;28;20037;-91
2021/08/12 07:36:10;;;;;;;5.22;2.03;;;23.10;69.10;;;;;;5016694;28;20057;-91
2021/08/12 07:38:37;;;;;;;5.45;1.85;;;23.30;68.80;;;;;;5028358;28;20380;-85
2021/08/12 07:41:04;;;;;;;3.63;1.48;;;23.50;68.70;;;;;;5076525;28;20105;-88
2021/08/12 07:43:31;;;;;;;4.97;1.90;;;23.80;68.50;;;;;;5052185;28;20502;-85
2021/08/12 07:45:57;;;;;;;6.13;2.03;;;24.10;68.30;;;;;;5054616;28;20415;-92
2021/08/12 07:48:24;;;;;;;3.55;1.73;;;24.30;67.90;;;;;;5047095;28;20021;-87
2021/08/12 07:50:50;;;;;;;4.30;1.98;;;24.50;68.20;;;;;;5056655;28;20128;-89
2021/08/12 07:53:17;;;;;;;5.80;2.13;;;24.50;67.20;;;;;;5043491;28;20128;-89
2021/08/12 07:55:43;;;;;;;3.88;2.28;;;24.50;67.00;;;;;;5055931;28;20029;-85
2021/08/12 07:58:09;;;;;;;5.60;2.53;;;24.60;67.00;;;;;;5056005;28;20033;-87
2021/08/12 08:00:35;;;;;;;10.40;2.38;;;24.70;66.90;;;;;;5073620;28;20036;-85
2021/08/12 08:03:01;;;;;;;5.95;2.28;;;24.80;66.70;;;;;;5070605;28;20117;-85
2021/08/12 08:05:29;;;;;;;3.97;2.17;;;25.00;66.60;;;;;;5074497;28;20106;-86
2021/08/12 08:07:55;;;;;;;4.07;1.60;;;25.20;66.30;;;;;;5040426;28;20032;-87
2021/08/12 08:10:24;;;;;;;4.28;1.67;;;25.20;65.80;;;;;;5078676;28;20017;-85
2021/08/12 08:12:50;;;;;;;6.13;2.78;;;25.20;65.50;;;;;;5084979;28;20106;-84
2021/08/12 08:15:18;;;;;;;3.58;1.92;;;25.20;65.40;;;;;;5065557;28;20032;-88
2021/08/12 08:17:44;;;;;;;4.03;2.30;;;25.20;65.80;;;;;;5061598;28;20049;-85
2021/08/12 08:20:12;;;;;;;3.97;1.77;;;25.10;65.20;;;;;;5044362;28;20013;-85
2021/08/12 08:22:38;;;;;;;3.90;2.15;;;25.10;65.20;;;;;;5053754;28;20098;-83
2021/08/12 08:25:06;;;;;;;5.22;2.40;;;25.10;65.10;;;;;;5080306;28;20040;-86
2021/08/12 08:27:33;;;;;;;4.72;2.17;;;25.10;65.00;;;;;;5047108;28;20033;-84
2021/08/12 08:29:59;;;;;;;6.32;2.22;;;25.10;65.00;;;;;;5043415;28;20033;-82
2021/08/12 08:32:28;;;;;;;3.97;2.50;;;25.00;65.00;;;;;;5073749;28;20464;-81
2021/08/12 08:34:54;;;;;;;4.65;2.25;;;24.90;64.80;;;;;;5074004;28;20024;-81
2021/08/12 08:37:21;;;;;;;4.72;2.53;;;24.80;64.60;;;;;;5074848;28;20040;-81
2021/08/12 08:39:47;;;;;;;4.63;2.40;;;24.70;64.60;;;;;;5074939;28;20045;-85
2021/08/12 08:42:13;;;;;;;5.85;2.20;;;24.50;64.50;;;;;;5056398;28;20035;-86
2021/08/12 08:44:42;;;;;;;4.43;2.00;;;24.40;64.50;;;;;;5053374;28;20424;-85
2021/08/12 08:47:10;;;;;;;4.38;2.45;;;24.30;64.60;;;;;;5074353;28;20079;-89
2021/08/12 08:49:42;;;;;;;5.03;2.40;;;24.30;64.70;;;;;;5055685;28;20032;-85
2021/08/12 08:52:11;;;;;;;3.85;2.03;;;24.30;64.70;;;;;;5051779;28;20059;-88
2021/08/12 08:54:38;;;;;;;6.07;1.98;;;24.30;64.70;;;;;;5058283;28;20036;-89
2021/08/12 08:57:06;;;;;;;4.43;2.58;;;24.40;64.80;;;;;;5045000;28;20036;-91
2021/08/12 08:59:34;;;;;;;4.72;2.80;;;24.50;64.90;;;;;;5026752;28;20091;-92
2021/08/12 09:02:07;;;;;;;4.68;2.50;;;24.50;64.90;;;;;;5038666;28;20044;-92
2021/08/12 09:04:35;;;;;;;2.58;1.83;;;24.50;64.80;;;;;;5040093;28;20020;-91
2021/08/12 09:07:04;;;;;;;3.60;2.25;;;24.50;64.80;;;;;;5043307;28;20037;-94
2021/08/12 09:09:32;;;;;;;4.50;2.35;;;24.50;64.80;;;;;;5068086;28;20025;-95
2021/08/12 09:12:03;;;;;;;3.80;1.98;;;24.50;64.70;;;;;;5056624;28;20126;-88
2021/08/12 09:14:38;;;;;;;4.63;2.40;;;24.50;64.70;;;;;;5070510;28;20425;-86
2021/08/12 09:17:19;;;;;;;4.68;2.22;;;24.50;64.70;;;;;;5045694;28;20064;-87
2021/08/12 09:20:19;;;;;;;4.50;2.38;;;24.50;64.80;;;;;;5057153;28;20039;-85
2021/08/12 09:23:04;;;;;;;3.75;2.30;;;24.40;64.70;;;;;;5001396;28;20075;-88
2021/08/12 09:25:47;;;;;;;4.05;2.17;;;24.30;64.50;;;;;;5053615;28;20024;-89
2021/08/12 09:28:21;;;;;;;5.05;2.20;;;24.30;64.60;;;;;;5052954;28;20032;-85
2021/08/12 09:30:54;;;;;;;3.95;2.67;;;24.20;64.60;;;;;;5053501;28;20029;-89
2021/08/12 09:33:20;;;;;;;5.50;2.60;;;24.30;64.80;;;;;;5041068;28;20044;-89
2021/08/12 09:35:46;;;;;;;4.60;2.75;;;24.30;64.80;;;;;;5032945;28;20128;-84
2021/08/12 09:38:14;;;;;;;4.32;2.20;;;24.30;64.80;;;;;;5051820;28;20103;-87
2021/08/12 09:40:41;;;;;;;3.63;1.90;;;24.30;64.70;;;;;;5052495;28;20024;-87
2021/08/12 09:43:08;;;;;;;5.50;2.75;;;24.40;64.90;;;;;;5048273;28;20033;-89
2021/08/12 09:45:35;;;;;;;5.47;2.47;;;24.30;64.70;;;;;;5068181;28;20070;-94
2021/08/12 09:48:14;;;;;;;4.50;2.20;;;24.40;64.80;;;;;;5001297;28;20112;-86
2021/08/12 09:50:42;;;;;;;3.78;2.22;;;24.40;64.90;;;;;;5050812;28;20116;-83
2021/08/12 09:53:17;;;;;;;3.42;2.17;;;24.40;64.90;;;;;;5050562;28;20051;-89
2021/08/12 09:55:43;;;;;;;4.57;2.03;;;24.40;64.90;;;;;;5032557;28;20087;-85
2021/08/12 09:58:10;;;;;;;4.68;2.45;;;24.40;64.90;;;;;;5056642;28;20081;-86
2021/08/12 10:00:41;;;;;;;2.90;2.00;;;24.50;65.00;;;;;;5052795;28;20035;-89
2021/08/12 10:03:30;;;;;;;5.20;2.17;;;24.50;65.00;;;;;;5027918;28;20072;-86
2021/08/12 10:05:58;;;;;;;2.67;2.08;;;24.70;65.20;;;;;;5052188;28;20188;-91
2021/08/12 10:08:32;;;;;;;3.03;2.00;;;24.70;65.10;;;;;;5056561;28;20025;-91
2021/08/12 10:11:16;;;;;;;3.08;2.13;;;24.80;65.10;;;;;;5037028;28;20037;-87
2021/08/12 10:13:43;;;;;;;3.55;2.22;;;24.90;65.90;;;;;;5038080;28;20028;-89
2021/08/12 10:16:10;;;;;;;3.97;2.20;;;24.90;65.20;;;;;;5071992;28;20058;-83
2021/08/12 10:18:40;;;;;;;3.83;1.73;;;25.00;65.30;;;;;;5076179;28;20095;-91
2021/08/12 10:21:06;;;;;;;4.95;2.60;;;25.00;65.20;;;;;;5074109;28;20063;-90
2021/08/12 10:23:36;;;;;;;4.18;2.00;;;25.00;65.10;;;;;;5069597;28;20032;-86
2021/08/12 10:26:02;;;;;;;4.65;2.63;;;25.10;65.20;;;;;;5056891;28;20210;-88
2021/08/12 10:28:32;;;;;;;4.43;2.25;;;25.10;65.20;;;;;;5073570;28;20044;-90
2021/08/12 10:30:59;;;;;;;3.28;2.10;;;25.10;65.20;;;;;;5056171;28;20047;-88
2021/08/12 10:33:25;;;;;;;4.00;2.60;;;25.20;65.30;;;;;;5072629;28;20036;-88
2021/08/12 10:35:52;;;;;;;3.22;2.30;;;25.40;65.20;;;;;;5074612;28;20035;-87
2021/08/12 10:38:18;;;;;;;3.75;2.55;;;25.60;64.90;;;;;;5040472;28;20028;-91
2021/08/12 10:40:52;;;;;;;4.70;2.55;;;25.70;64.80;;;;;;5093764;28;20024;-92
2021/08/12 10:43:24;;;;;;;4.15;2.58;;;25.80;64.60;;;;;;5061145;28;20056;-89
2021/08/12 10:45:55;;;;;;;2.40;1.92;;;26.00;64.50;;;;;;5055355;28;20208;-91
2021/08/12 10:48:23;;;;;;;3.05;2.30;;;26.00;64.30;;;;;;5054919;28;20039;-87
2021/08/12 10:51:10;;;;;;;3.03;2.03;;;26.10;64.20;;;;;;5055394;28;20028;-86
2021/08/12 10:53:44;;;;;;;3.50;2.22;;;26.10;64.10;;;;;;5071187;28;20040;-83
2021/08/12 10:56:19;;;;;;;2.95;2.30;;;26.20;64.20;;;;;;5072187;28;20128;-89
2021/08/12 10:58:47;;;;;;;2.67;1.85;;;26.20;64.10;;;;;;5056252;28;20040;-89
2021/08/12 11:01:32;;;;;;;3.03;1.90;;;26.20;64.10;;;;;;5054969;28;20055;-89
2021/08/12 11:04:02;;;;;;;2.55;1.67;;;26.30;64.10;;;;;;5056230;28;20032;-86
2021/08/12 11:06:37;;;;;;;2.67;1.70;;;26.30;64.10;;;;;;5074921;28;20035;-86
2021/08/12 11:09:05;;;;;;;3.22;1.60;;;26.30;64.00;;;;;;5052025;28;20055;-89
2021/08/12 11:11:31;;;;;;;3.35;2.00;;;26.40;64.00;;;;;;5070731;28;20044;-86
2021/08/12 11:14:03;;;;;;;2.28;1.88;;;26.50;64.00;;;;;;5070712;28;20232;-88
2021/08/12 11:16:41;;;;;;;3.75;1.83;;;26.50;63.80;;;;;;5074319;28;20043;-87
2021/08/12 11:19:09;;;;;;;2.70;1.63;;;26.60;63.70;;;;;;5053912;28;20112;-87
2021/08/12 11:21:40;;;;;;;3.53;1.55;;;26.60;63.70;;;;;;5072248;28;20028;-84
2021/08/12 11:24:13;;;;;;;1.90;1.65;;;26.60;63.70;;;;;;5048402;28;20094;-83
2021/08/12 11:26:44;;;;;;;;;;;26.70;63.60;;;;;;5056841;28;20033;-84
2021/08/12 11:29:22;;;;;;;3.20;1.67;;;26.80;63.60;;;;;;5074137;28;19934;-93
2021/08/12 11:31:49;;;;;;;3.38;1.38;;;26.90;63.50;;;;;;5045743;28;20143;-85
2021/08/12 11:34:25;;;;;;;2.55;1.40;;;27.00;63.00;;;;;;5075277;28;20041;-85
2021/08/12 11:37:08;;;;;;;1.95;1.23;;;27.00;62.60;;;;;;5042317;28;20025;-87
2021/08/12 11:39:45;;;;;;;10.32;1.92;;;26.90;62.50;;;;;;5070583;28;20087;-86
2021/08/12 11:42:34;;;;;;;1.77;1.10;;;26.80;62.60;;;;;;5053455;28;20069;-82
2021/08/12 11:45:10;;;;;;;2.33;1.60;;;26.70;63.00;;;;;;5052152;28;20033;-86
2021/08/12 11:47:37;;;;;;;2.30;1.50;;;26.70;63.20;;;;;;5036306;28;20099;-84
2021/08/12 11:50:09;;;;;;;2.30;1.75;;;26.70;63.30;;;;;;5053366;28;20033;-82
2021/08/12 11:52:37;;;;;;;3.20;1.52;;;26.80;63.20;;;;;;5050381;28;20064;-84
2021/08/12 11:55:12;;;;;;;4.65;1.77;;;26.90;63.20;;;;;;5050270;28;20461;-83
2021/08/12 11:57:51;;;;;;;2.25;1.27;;;27.00;63.00;;;;;;5032898;28;20037;-82
2021/08/12 12:00:28;;;;;;;2.42;1.42;;;27.10;63.00;;;;;;5051604;28;20029;-85
2021/08/12 12:02:54;;;;;;;5.63;1.60;;;27.20;62.80;;;;;;5034790;28;20036;-83
2021/08/12 12:05:22;;;;;;;2.10;1.58;;;27.30;62.70;;;;;;5034020;28;20037;-83
2021/08/12 12:07:57;;;;;;;4.72;1.73;;;27.30;62.60;;;;;;5053647;28;20052;-83
2021/08/12 12:10:27;;;;;;;4.22;1.85;;;27.40;62.50;;;;;;5033516;28;20128;-85
2021/08/12 12:13:07;;;;;;;4.00;1.63;;;27.40;62.50;;;;;;5050722;28;20538;-84
2021/08/12 12:15:54;;;;;;;2.33;1.42;;;27.50;62.60;;;;;;5032564;28;20049;-86
2021/08/12 12:18:41;;;;;;;2.67;1.52;;;27.60;62.50;;;;;;5025632;28;20025;-88
2021/08/12 12:21:18;;;;;;;4.43;1.90;;;27.80;62.50;;;;;;5035613;28;20029;-82
2021/08/12 12:23:47;;;;;;;4.72;1.73;;;27.90;62.30;;;;;;5052541;28;20020;-83
2021/08/12 12:26:24;;;;;;;2.80;1.45;;;28.10;62.10;;;;;;5027018;28;20025;-84
2021/08/12 12:28:51;;;;;;;2.80;1.48;;;28.20;62.10;;;;;;5029155;28;20029;-88
2021/08/12 12:31:23;;;;;;;3.10;1.40;;;28.40;61.90;;;;;;5058279;28;20033;-93
2021/08/12 12:33:56;;;;;;;1.80;1.33;;;28.60;61.80;;;;;;5039376;28;20033;-85
2021/08/12 12:36:25;;;;;;;3.63;1.52;;;28.90;61.60;;;;;;5039111;28;20041;-85
2021/08/12 12:38:53;;;;;;;1.98;1.30;;;29.10;61.40;;;;;;5049944;28;20087;-85
2021/08/12 12:41:22;;;;;;;2.70;1.40;;;29.40;61.00;;;;;;5025254;28;20112;-84
2021/08/12 12:43:48;;;;;;;2.42;1.40;;;29.60;60.70;;;;;;5042214;28;20060;-87
2021/08/12 12:46:29;;;;;;;2.15;1.40;;;29.80;60.50;;;;;;5029119;28;20056;-86
2021/08/12 12:48:55;;;;;;;2.88;1.30;;;29.90;60.30;;;;;;5080122;28;20105;-89
2021/08/12 12:51:28;;;;;;;5.03;1.85;;;30.10;60.10;;;;;;5062614;28;20028;-87
2021/08/12 12:53:54;;;;;;;2.78;1.33;;;30.30;60.00;;;;;;5049468;28;20071;-88
2021/08/12 12:56:23;;;;;;;3.50;1.55;;;30.50;59.80;;;;;;5060489;28;20033;-87
2021/08/12 12:58:50;;;;;;;2.70;1.50;;;30.60;60.10;;;;;;5061709;28;20041;-87